createdAt,value
2022-10-18T00:02:10.213Z,98588.84
2022-10-18T00:04:40.076Z,98581.66
2022-10-18T00:07:08.868Z,98588.00
2022-10-18T00:09:37.271Z,98583.31
2022-10-18T00:12:05.929Z,98584.44
2022-10-18T00:14:34.298Z,98580.03
2022-10-18T00:17:02.845Z,98580.03
2022-10-18T00:19:31.266Z,98574.50
2022-10-18T00:22:01.065Z,98580.84
2022-10-18T00:24:29.492Z,98585.56
2022-10-18T00:26:57.864Z,98585.56
2022-10-18T00:29:26.268Z,98580.84
2022-10-18T00:31:54.888Z,98570.91
2022-10-18T00:34:23.317Z,98575.31
2022-10-18T00:36:51.749Z,98567.31
2022-10-18T00:39:23.010Z,98573.69
2022-10-18T00:41:52.090Z,98574.50
2022-10-18T00:45:02.593Z,98579.19
2022-10-18T00:47:31.029Z,98574.50
2022-10-18T00:50:04.105Z,98585.56
2022-10-18T00:52:36.725Z,98586.38
2022-10-18T00:55:07.741Z,98581.97
2022-10-18T00:57:37.441Z,98585.56
2022-10-18T01:00:09.871Z,98585.56
2022-10-18T01:02:45.371Z,98585.56
2022-10-18T01:05:15.090Z,98581.44
2022-10-18T01:08:28.550Z,98590.25
2022-10-18T01:11:11.270Z,98583.91
2022-10-18T01:13:49.301Z,98594.97
2022-10-18T01:16:25.576Z,98586.97
2022-10-18T01:18:59.464Z,98593.34
2022-10-18T01:21:34.091Z,98583.91
2022-10-18T01:24:31.499Z,98581.16
2022-10-18T01:27:29.635Z,98587.81
2022-10-18T01:30:12.985Z,98593.34
2022-10-18T01:32:48.472Z,98585.03
2022-10-18T01:35:22.949Z,98592.50
2022-10-18T01:37:53.575Z,98582.28
2022-10-18T01:40:24.533Z,98580.63
2022-10-18T01:42:53.371Z,98581.44
2022-10-18T01:45:24.330Z,98589.22
2022-10-18T01:47:55.656Z,98594.47
2022-10-18T01:50:29.937Z,98591.69
2022-10-18T01:52:58.751Z,98589.22
2022-10-18T01:55:32.739Z,98586.16
2022-10-18T01:58:08.734Z,98571.81
2022-10-18T02:00:41.849Z,98583.69
2022-10-18T02:03:18.442Z,98582.88
2022-10-18T02:05:52.922Z,98590.06
2022-10-18T02:08:29.895Z,98577.34
2022-10-18T02:11:03.249Z,98579.00
2022-10-18T02:13:36.401Z,98590.88
2022-10-18T02:16:08.678Z,98588.41
2022-10-18T02:18:42.826Z,98590.06
2022-10-18T02:21:16.842Z,98579.00
2022-10-18T02:23:46.017Z,98562.41
2022-10-18T02:26:15.505Z,98577.06
2022-10-18T02:28:45.615Z,98581.75
2022-10-18T02:31:21.677Z,98579.00
2022-10-18T02:33:58.166Z,98573.47
2022-10-18T02:36:32.531Z,98571.81
2022-10-18T02:39:05.129Z,98564.66
2022-10-18T02:41:34.021Z,98564.66
2022-10-18T02:44:02.432Z,98566.28
2022-10-18T02:46:30.936Z,98560.75
2022-10-18T02:49:00.740Z,98555.22
2022-10-18T02:51:29.271Z,98563.53
2022-10-18T02:53:57.914Z,98559.94
2022-10-18T02:56:26.365Z,98555.22
2022-10-18T02:58:54.753Z,98552.47
2022-10-18T03:01:23.302Z,98559.94
2022-10-18T03:03:51.774Z,98564.66
2022-10-18T03:06:21.683Z,98563.84
2022-10-18T03:08:50.109Z,98570.19
2022-10-18T03:11:18.534Z,98564.66
2022-10-18T03:13:46.949Z,98566.28
2022-10-18T03:16:15.375Z,98564.66
2022-10-18T03:18:43.829Z,98569.38
2022-10-18T03:21:12.394Z,98568.53
2022-10-18T03:23:42.464Z,98563.00
2022-10-18T03:26:11.223Z,98557.47
2022-10-18T03:28:39.692Z,98553.59
2022-10-18T03:31:08.156Z,98550.84
2022-10-18T03:33:36.603Z,98556.34
2022-10-18T03:36:05.286Z,98558.31
2022-10-18T03:38:33.758Z,98552.78
2022-10-18T03:41:03.570Z,98551.97
2022-10-18T03:43:32.055Z,98553.59
2022-10-18T03:46:01.486Z,98546.44
2022-10-18T03:48:30.020Z,98544.47
2022-10-18T03:50:58.572Z,98556.34
2022-10-18T03:53:26.997Z,98553.59
2022-10-18T03:55:57.059Z,98559.13
2022-10-18T03:58:26.965Z,98563.84
2022-10-18T04:00:56.329Z,98568.53
2022-10-18T04:03:24.827Z,98575.72
2022-10-18T04:05:53.285Z,98570.19
2022-10-18T04:08:21.709Z,98574.06
2022-10-18T04:10:50.161Z,98572.94
2022-10-18T04:13:18.547Z,98576.53
2022-10-18T04:15:48.353Z,98574.06
2022-10-18T04:18:16.804Z,98579.28
2022-10-18T04:20:47.143Z,98572.94
2022-10-18T04:23:15.523Z,98568.53
2022-10-18T04:28:17.232Z,98565.47
2022-10-18T04:30:52.208Z,98568.25
2022-10-18T04:33:21.387Z,98564.34
2022-10-18T04:35:53.106Z,98567.94
2022-10-18T04:38:21.681Z,98565.47
2022-10-18T04:40:50.081Z,98577.34
2022-10-18T04:43:18.481Z,98568.25
2022-10-18T04:45:47.990Z,98571.81
2022-10-18T04:48:17.809Z,98577.34
2022-10-18T04:50:48.882Z,98580.13
2022-10-18T04:53:18.361Z,98582.88
2022-10-18T04:55:48.836Z,98567.13
2022-10-18T04:58:18.341Z,98572.94
2022-10-18T05:00:47.643Z,98571.00
2022-10-18T05:03:18.132Z,98578.16
2022-10-18T05:06:03.430Z,98573.47
2022-10-18T05:08:33.527Z,98588.41
2022-10-18T05:11:02.343Z,98579.00
2022-10-18T05:13:31.565Z,98574.59
2022-10-18T05:16:00.719Z,98575.72
2022-10-18T05:18:30.694Z,98566.91
2022-10-18T05:20:59.454Z,98571.41
2022-10-18T05:23:27.892Z,98570.59
2022-10-18T05:25:56.351Z,98577.53
2022-10-18T05:28:41.363Z,98578.16
2022-10-18T05:31:12.069Z,98568.50
2022-10-18T05:33:41.845Z,98561.66
2022-10-18T05:36:10.753Z,98561.97
2022-10-18T05:38:41.897Z,98566.66
2022-10-18T05:41:10.884Z,98563.91
2022-10-18T05:43:39.620Z,98567.78
2022-10-18T05:46:13.635Z,98563.91
2022-10-18T05:48:45.300Z,98567.47
2022-10-18T05:51:13.733Z,98573.31
2022-10-18T05:53:42.244Z,98577.72
2022-10-18T05:56:11.757Z,98576.59
2022-10-18T05:58:40.879Z,98571.06
2022-10-18T06:01:10.854Z,98574.94
2022-10-18T06:03:39.307Z,98583.25
2022-10-18T06:06:12.073Z,98579.34
2022-10-18T06:08:42.177Z,98574.34
2022-10-18T06:11:12.832Z,98561.66
2022-10-18T06:13:42.348Z,98556.66
2022-10-18T06:16:12.108Z,98568.22
2022-10-18T06:18:41.210Z,98569.84
2022-10-18T06:21:11.213Z,98576.19
2022-10-18T06:23:39.656Z,98577.53
2022-10-18T06:26:09.537Z,98585.53
2022-10-18T06:28:39.337Z,98591.06
2022-10-18T06:31:07.783Z,98586.34
2022-10-18T06:33:37.285Z,98591.56
2022-10-18T06:36:09.377Z,98588.81
2022-10-18T06:38:39.617Z,98594.84
2022-10-18T06:41:08.736Z,98599.16
2022-10-18T06:43:37.413Z,98600.28
2022-10-18T06:46:07.687Z,98600.28
2022-10-18T06:48:36.785Z,98595.56
2022-10-18T06:51:07.501Z,98603.34
2022-10-18T06:53:43.872Z,98604.19
2022-10-18T06:56:14.691Z,98609.09
2022-10-18T06:58:43.196Z,98611.56
2022-10-18T07:01:13.769Z,98606.63
2022-10-18T07:03:42.930Z,98624.88
2022-10-18T07:06:14.273Z,98625.69
2022-10-18T07:08:43.257Z,98618.53
2022-10-18T07:11:18.238Z,98621.59
2022-10-18T07:13:46.993Z,98620.75
2022-10-18T07:16:18.543Z,98625.47
2022-10-18T07:18:49.490Z,98625.16
2022-10-18T07:21:20.244Z,98627.31
2022-10-18T07:23:49.109Z,98623.13
2022-10-18T07:26:21.417Z,98620.88
2022-10-18T07:28:51.571Z,98620.59
2022-10-18T07:31:20.086Z,98618.63
2022-10-18T07:33:48.888Z,98615.88
2022-10-18T07:36:17.346Z,98616.38
2022-10-18T07:38:45.894Z,98609.22
2022-10-18T07:41:15.543Z,98625.81
2022-10-18T07:43:47.117Z,98610.56
2022-10-18T07:46:17.011Z,98615.25
2022-10-18T07:48:45.469Z,98616.91
2022-10-18T07:51:13.970Z,98613.00
2022-10-18T07:56:15.958Z,98608.81
2022-10-18T07:58:46.854Z,98612.41
2022-10-18T08:01:16.627Z,98613.22
2022-10-18T08:03:45.176Z,98606.06
2022-10-18T08:06:18.316Z,98596.63
2022-10-18T08:08:47.011Z,98600.13
2022-10-18T08:11:17.383Z,98605.25
2022-10-18T08:13:47.901Z,98612.53
2022-10-18T08:16:19.069Z,98610.38
2022-10-18T08:18:47.828Z,98618.16
2022-10-18T08:21:18.141Z,98612.41
2022-10-18T08:23:46.873Z,98615.78
2022-10-18T08:26:18.942Z,98619.16
2022-10-18T08:28:53.901Z,98623.03
2022-10-18T08:31:27.246Z,98613.94
2022-10-18T08:33:56.535Z,98609.53
2022-10-18T08:36:25.688Z,98621.91
2022-10-18T08:38:54.292Z,98611.69
2022-10-18T08:42:02.219Z,98622.44
2022-10-18T08:44:33.397Z,98616.91
2022-10-18T08:47:05.449Z,98630.63
2022-10-18T08:49:46.625Z,98631.75
2022-10-18T08:52:29.499Z,98633.41
2022-10-18T08:55:03.155Z,98637.19
2022-10-18T08:57:32.694Z,98637.41
2022-10-18T09:00:03.533Z,98636.28
2022-10-18T09:02:48.689Z,98630.44
2022-10-18T09:05:25.986Z,98630.16
2022-10-18T09:08:10.299Z,98634.34
2022-10-18T09:10:46.360Z,98636.59
2022-10-18T09:13:32.749Z,98621.63
2022-10-18T09:16:04.847Z,98631.06
2022-10-18T09:18:57.257Z,98630.53
2022-10-18T09:21:37.400Z,98637.41
2022-10-18T09:24:12.453Z,98632.69
2022-10-18T09:26:44.827Z,98624.31
2022-10-18T09:29:31.581Z,98631.47
2022-10-18T09:32:12.686Z,98628.44
2022-10-18T09:34:45.899Z,98621.47
2022-10-18T09:37:16.967Z,98623.13
2022-10-18T09:39:47.659Z,98631.41
2022-10-18T09:42:26.434Z,98626.19
2022-10-18T09:45:00.245Z,98625.38
2022-10-18T09:47:37.989Z,98630.91
2022-10-18T09:50:18.925Z,98628.44
2022-10-18T09:52:52.936Z,98635.06
2022-10-18T09:55:23.347Z,98632.31
2022-10-18T09:57:55.754Z,98635.06
2022-10-18T10:00:30.529Z,98632.59
2022-10-18T10:03:02.569Z,98637.63
2022-10-18T10:05:31.024Z,98635.97
2022-10-18T10:08:02.350Z,98634.34
2022-10-18T10:10:31.629Z,98639.06
2022-10-18T10:13:07.680Z,98632.69
2022-10-18T10:15:38.333Z,98640.19
2022-10-18T10:18:20.759Z,98640.47
2022-10-18T10:20:52.991Z,98644.38
2022-10-18T10:23:25.994Z,98639.97
2022-10-18T10:25:56.794Z,98643.84
2022-10-18T10:28:29.641Z,98641.09
2022-10-18T10:31:18.489Z,98649.38
2022-10-18T10:33:49.058Z,98644.97
2022-10-18T10:36:19.736Z,98643.34
2022-10-18T10:39:04.348Z,98641.69
2022-10-18T10:44:16.419Z,98645.59
2022-10-18T10:46:44.960Z,98639.25
2022-10-18T10:49:39.775Z,98645.59
2022-10-18T10:52:27.790Z,98640.06
2022-10-18T10:55:11.073Z,98634.53
2022-10-18T10:57:46.963Z,98629.81
2022-10-18T11:00:37.929Z,98618.75
2022-10-18T11:03:27.927Z,98627.06
2022-10-18T11:06:00.751Z,98628.19
2022-10-18T11:08:34.031Z,98624.59
2022-10-18T11:11:16.947Z,98626.22
2022-10-18T11:13:56.941Z,98626.22
2022-10-18T11:16:49.649Z,98612.41
2022-10-18T11:19:35.487Z,98608.50
2022-10-18T11:22:10.511Z,98609.34
2022-10-18T11:24:39.499Z,98611.28
2022-10-18T11:27:13.869Z,98618.75
2022-10-18T11:29:55.988Z,98604.09
2022-10-18T11:32:32.587Z,98618.75
2022-10-18T11:35:14.119Z,98617.94
2022-10-18T11:37:57.177Z,98610.47
2022-10-18T11:40:43.552Z,98607.69
2022-10-18T11:43:17.729Z,98613.22
2022-10-18T11:45:54.409Z,98609.63
2022-10-18T11:48:41.849Z,98604.09
2022-10-18T11:51:29.658Z,98606.06
2022-10-18T11:54:30.355Z,98598.56
2022-10-18T11:57:07.500Z,98601.34
2022-10-18T11:59:39.569Z,98595.81
2022-10-18T12:02:39.638Z,98599.09
2022-10-18T12:05:25.660Z,98595.72
2022-10-18T12:08:00.740Z,98598.69
2022-10-18T12:10:45.989Z,98594.50
2022-10-18T12:13:30.330Z,98599.97
2022-10-18T12:15:58.886Z,98603.25
2022-10-18T12:18:28.256Z,98595.44
2022-10-18T12:20:59.295Z,98601.19
2022-10-18T12:23:39.439Z,98598.13
2022-10-18T12:26:11.638Z,98597.00
2022-10-18T12:28:48.371Z,98595.88
2022-10-18T12:31:25.638Z,98600.28
2022-10-18T12:33:59.577Z,98597.50
2022-10-18T12:36:53.107Z,98593.41
2022-10-18T12:39:37.734Z,98587.34
2022-10-18T12:42:22.886Z,98593.19
2022-10-18T12:45:02.463Z,98590.44
2022-10-18T12:47:32.194Z,98583.25
2022-10-18T12:50:04.983Z,98584.38
2022-10-18T12:52:36.931Z,98582.44
2022-10-18T12:55:27.711Z,98575.28
2022-10-18T12:58:21.830Z,98571.69
2022-10-18T13:01:07.913Z,98570.56
2022-10-18T13:04:00.325Z,98559.50
2022-10-18T13:07:07.859Z,98565.53
2022-10-18T13:09:37.669Z,98564.91
2022-10-18T13:12:50.216Z,98556.31
2022-10-18T13:15:39.623Z,98572.00
2022-10-18T13:18:19.235Z,98566.16
2022-10-18T13:20:57.584Z,98573.31
2022-10-18T13:23:40.269Z,98568.31
2022-10-18T13:26:19.801Z,98574.16
2022-10-18T13:28:57.384Z,98569.44
2022-10-18T13:31:36.182Z,98575.78
2022-10-18T13:34:28.038Z,98570.25
2022-10-18T13:37:01.185Z,98569.75
2022-10-18T13:39:31.186Z,98570.34
2022-10-18T13:42:35.317Z,98563.19
2022-10-18T13:45:40.873Z,98575.38
2022-10-18T13:48:48.802Z,98579.28
2022-10-18T13:51:53.115Z,98590.94
2022-10-18T13:54:39.563Z,98581.00
2022-10-18T13:57:29.533Z,98579.88
2022-10-18T14:00:20.443Z,98585.41
2022-10-18T14:03:51.431Z,98589.00
2022-10-18T14:06:18.949Z,98592.59
2022-10-18T14:08:54.212Z,98591.75
2022-10-18T14:11:30.379Z,98595.66
2022-10-18T14:14:05.697Z,98598.72
2022-10-18T14:16:39.995Z,98591.56
2022-10-18T14:19:17.204Z,98597.91
2022-10-18T14:21:53.230Z,98593.50
2022-10-18T14:24:26.278Z,98588.78
2022-10-18T14:27:17.491Z,98596.28
2022-10-18T14:29:46.673Z,98600.16
2022-10-18T14:32:25.302Z,98596.56
2022-10-18T14:35:09.252Z,98604.56
2022-10-18T14:37:44.722Z,98604.88
2022-10-18T14:40:28.481Z,98603.81
2022-10-18T14:42:57.259Z,98609.97
2022-10-18T14:45:25.770Z,98614.69
2022-10-18T14:47:54.208Z,98611.09
2022-10-18T14:50:26.156Z,98615.50
2022-10-18T14:52:59.090Z,98613.84
2022-10-18T14:55:28.815Z,98612.22
2022-10-18T14:57:58.375Z,98617.75
2022-10-18T15:00:31.365Z,98611.41
2022-10-18T15:02:59.838Z,98610.56
2022-10-18T15:05:28.358Z,98611.41
2022-10-18T15:08:00.501Z,98610.56
2022-10-18T15:10:32.349Z,98614.47
2022-10-18T15:13:09.704Z,98612.00
2022-10-18T15:15:40.024Z,98606.16
2022-10-18T15:18:09.296Z,98604.22
2022-10-18T15:20:42.373Z,98605.03
2022-10-18T15:23:24.105Z,98611.41
2022-10-18T15:26:00.541Z,98604.53
2022-10-18T15:28:31.282Z,98602.06
2022-10-18T15:31:01.824Z,98599.09
2022-10-18T15:33:34.570Z,98600.22
2022-10-18T15:36:11.157Z,98601.34
2022-10-18T15:38:40.955Z,98604.72
2022-10-18T15:41:38.296Z,98598.69
2022-10-18T15:44:21.221Z,98594.28
2022-10-18T15:46:52.845Z,98604.81
2022-10-18T15:49:51.929Z,98602.34
2022-10-18T15:52:44.635Z,98603.78
2022-10-18T15:55:50.043Z,98602.97
2022-10-18T15:58:22.308Z,98602.16
2022-10-18T16:00:52.688Z,98608.50
2022-10-18T16:03:23.863Z,98614.31
2022-10-18T16:05:56.914Z,98608.28
2022-10-18T16:08:28.759Z,98603.34
2022-10-18T16:10:59.889Z,98613.28
2022-10-18T16:13:28.509Z,98616.66
2022-10-18T16:15:57.001Z,98624.66
2022-10-18T16:18:26.491Z,98620.56
2022-10-18T16:20:55.726Z,98629.97
2022-10-18T16:23:26.634Z,98624.44
2022-10-18T16:25:55.378Z,98626.06
2022-10-18T16:28:27.076Z,98622.19
2022-10-18T16:30:58.880Z,98624.88
2022-10-18T16:33:28.022Z,98623.13
2022-10-18T16:35:56.527Z,98623.03
2022-10-18T16:38:34.808Z,98627.44
2022-10-18T16:41:05.592Z,98624.06
2022-10-18T16:43:35.974Z,98625.09
2022-10-18T16:46:05.485Z,98631.66
2022-10-18T16:48:34.323Z,98634.94
2022-10-18T16:51:03.196Z,98632.69
2022-10-18T16:53:31.894Z,98651.16
2022-10-18T16:56:02.485Z,98648.06
2022-10-18T16:58:32.094Z,98650.56
2022-10-18T17:01:04.140Z,98657.75
2022-10-18T17:03:35.341Z,98655.19
2022-10-18T17:06:03.941Z,98655.69
2022-10-18T17:08:32.506Z,98650.69
2022-10-18T17:11:01.630Z,98655.09
2022-10-18T17:13:30.082Z,98663.91
2022-10-18T17:16:03.661Z,98662.25
2022-10-18T17:18:32.926Z,98653.66
2022-10-18T17:21:03.125Z,98665.53
2022-10-18T17:23:31.798Z,98653.97
2022-10-18T17:26:06.704Z,98660.94
2022-10-18T17:28:43.677Z,98658.47
2022-10-18T17:31:15.729Z,98656.81
2022-10-18T17:33:44.224Z,98662.66
2022-10-18T17:36:13.100Z,98663.78
2022-10-18T17:38:41.898Z,98662.44
2022-10-18T17:41:11.518Z,98665.22
2022-10-18T17:46:15.173Z,98671.88
2022-10-18T17:48:43.737Z,98672.69
2022-10-18T17:51:16.424Z,98670.75
2022-10-18T17:53:48.403Z,98680.19
2022-10-18T17:56:22.145Z,98676.56
2022-10-18T17:58:51.854Z,98679.06
2022-10-18T18:01:23.656Z,98673.53
2022-10-18T18:03:57.425Z,98679.06
2022-10-18T18:06:30.945Z,98684.59
2022-10-18T18:09:01.029Z,98683.47
2022-10-18T18:11:29.629Z,98683.47
2022-10-18T18:13:58.314Z,98677.94
2022-10-18T18:16:29.312Z,98686.22
2022-10-18T18:18:59.308Z,98682.94
2022-10-18T18:21:28.051Z,98685.16
2022-10-18T18:23:56.948Z,98682.38
2022-10-18T18:26:25.564Z,98690.69
2022-10-18T18:28:54.190Z,98690.38
2022-10-18T18:31:25.084Z,98679.31
2022-10-18T18:33:56.748Z,98671.03
2022-10-18T18:36:28.818Z,98675.72
2022-10-18T18:38:58.001Z,98670.19
2022-10-18T18:41:27.986Z,98679.63
2022-10-18T18:43:58.019Z,98670.19
2022-10-18T18:46:28.051Z,98679.63
2022-10-18T18:48:59.184Z,98679.09
2022-10-18T18:51:27.941Z,98676.34
2022-10-18T18:53:56.539Z,98679.09
2022-10-18T18:56:27.094Z,98680.22
2022-10-18T18:58:56.730Z,98682.47
2022-10-18T19:01:27.008Z,98681.34
2022-10-18T19:03:57.253Z,98676.13
2022-10-18T19:06:29.425Z,98672.53
2022-10-18T19:09:01.185Z,98673.66
2022-10-18T19:11:32.310Z,98677.56
2022-10-18T19:14:01.332Z,98675.91
2022-10-18T19:16:31.497Z,98675.09
2022-10-18T19:19:01.792Z,98679.81
2022-10-18T19:21:33.779Z,98679.81
2022-10-18T19:24:02.788Z,98677.88
2022-10-18T19:26:37.127Z,98672.63
2022-10-18T19:29:10.511Z,98679.28
2022-10-18T19:31:39.338Z,98672.94
2022-10-18T19:34:10.033Z,98675.72
2022-10-18T19:36:41.433Z,98680.41
2022-10-18T19:39:18.254Z,98669.34
2022-10-18T19:41:46.907Z,98677.66
2022-10-18T19:44:15.319Z,98674.88
2022-10-18T19:46:43.960Z,98677.66
2022-10-18T19:49:12.641Z,98685.94
2022-10-18T19:51:42.571Z,98680.41
2022-10-18T19:54:11.833Z,98684.31
2022-10-18T19:56:41.087Z,98679.38
2022-10-18T19:59:10.708Z,98684.31
2022-10-18T20:01:39.298Z,98689.31
2022-10-18T20:04:10.655Z,98686.25
2022-10-18T20:06:40.092Z,98691.78
2022-10-18T20:11:43.314Z,98682.66
2022-10-18T20:14:11.759Z,98690.97
2022-10-18T20:19:09.534Z,98694.53
2022-10-18T20:21:39.332Z,98686.56
2022-10-18T20:26:37.973Z,98686.56
2022-10-18T20:29:07.597Z,98690.44
2022-10-18T20:34:09.664Z,98690.44
2022-10-18T20:36:38.445Z,98686.03
2022-10-18T20:39:07.745Z,98690.44
2022-10-18T20:41:40.966Z,98690.44
2022-10-18T20:44:13.331Z,98674.16
2022-10-18T20:46:41.974Z,98678.56
2022-10-18T20:49:13.352Z,98683.28
2022-10-18T20:51:41.959Z,98681.63
2022-10-18T20:54:11.074Z,98680.81
2022-10-18T20:56:40.965Z,98680.50
2022-10-18T20:59:10.498Z,98687.69
2022-10-18T21:01:40.135Z,98683.28
2022-10-18T21:04:10.315Z,98681.63
2022-10-18T21:06:41.240Z,98681.63
2022-10-18T21:09:12.377Z,98678.88
2022-10-18T21:11:44.794Z,98678.88
2022-10-18T21:14:15.163Z,98667.81
2022-10-18T21:16:44.652Z,98676.09
2022-10-18T21:19:15.478Z,98679.97
2022-10-18T21:21:45.784Z,98676.09
2022-10-18T21:24:14.945Z,98674.47
2022-10-18T21:26:45.108Z,98666.16
2022-10-18T21:29:18.096Z,98669.75
2022-10-18T21:31:49.466Z,98670.06
2022-10-18T21:34:18.435Z,98663.41
2022-10-18T21:36:48.673Z,98661.75
2022-10-18T21:39:19.990Z,98657.88
2022-10-18T21:41:50.321Z,98659.00
2022-10-18T21:44:18.727Z,98657.88
2022-10-18T21:46:47.959Z,98663.69
2022-10-18T21:49:16.863Z,98658.47
2022-10-18T21:51:45.482Z,98650.69
2022-10-18T21:54:16.095Z,98653.75
2022-10-18T21:56:45.774Z,98651.81
2022-10-18T21:59:15.622Z,98644.34
2022-10-18T22:01:45.029Z,98645.47
2022-10-18T22:04:21.089Z,98640.75
2022-10-18T22:06:49.652Z,98642.69
2022-10-18T22:09:18.214Z,98638.00
2022-10-18T22:11:49.877Z,98637.19
2022-10-18T22:14:19.793Z,98632.47
2022-10-18T22:16:48.207Z,98630.81
2022-10-18T22:19:16.831Z,98629.69
2022-10-18T22:21:45.326Z,98622.53
2022-10-18T22:24:13.953Z,98625.28
2022-10-18T22:26:44.319Z,98626.13
2022-10-18T22:29:14.927Z,98629.19
2022-10-18T22:31:47.017Z,98625.28
2022-10-18T22:34:17.648Z,98623.66
2022-10-18T22:36:46.955Z,98626.41
2022-10-18T22:39:16.805Z,98622.00
2022-10-18T22:41:46.473Z,98618.13
2022-10-18T22:44:15.523Z,98616.19
2022-10-18T22:46:45.313Z,98620.88
2022-10-18T22:49:13.908Z,98617.31
2022-10-18T22:51:42.765Z,98610.94
2022-10-18T22:54:11.513Z,98615.34
2022-10-18T22:56:39.999Z,98621.72
2022-10-18T22:59:08.545Z,98612.59
2022-10-18T23:01:37.281Z,98616.47
2022-10-18T23:04:07.135Z,98616.47
2022-10-18T23:06:37.025Z,98614.84
2022-10-18T23:09:08.157Z,98619.25
2022-10-18T23:11:37.579Z,98616.47
2022-10-18T23:14:07.281Z,98610.94
2022-10-18T23:16:36.044Z,98603.78
2022-10-18T23:19:04.611Z,98605.41
2022-10-18T23:21:34.857Z,98609.31
2022-10-18T23:24:03.435Z,98599.91
2022-10-18T23:26:31.865Z,98598.25
2022-10-18T23:29:00.637Z,98601.03
2022-10-18T23:31:32.219Z,98598.25
2022-10-18T23:34:03.124Z,98598.25
2022-10-18T23:36:32.603Z,98599.91
2022-10-18T23:39:03.343Z,98604.91
2022-10-18T23:41:31.792Z,98606.53
2022-10-18T23:44:00.176Z,98604.59
2022-10-18T23:46:29.410Z,98599.06
2022-10-18T23:48:57.907Z,98601.03
2022-10-18T23:51:26.312Z,98599.91
2022-10-18T23:53:54.737Z,98601.03
2022-10-18T23:56:24.474Z,98605.41
2022-10-18T23:58:52.873Z,98605.41
